Time;durP1;ratioP1;P1;durP2;ratioP2;P2;SDS_P1;SDS_P2;PMS_P1;PMS_P2;Temp;Humidity;BMP_temperature;BMP_pressure;BME280_temperature;BME280_humidity;BME280_pressure;Samples;Min_cycle;Max_cycle;Signal;HPM_P1;HPM_P2
2023/08/15 00:00:39;;;;;;;7.80;3.55;;;20.00;99.90;;;;;;5060123;28;20070;-85
2023/08/15 00:03:04;;;;;;;10.05;2.78;;;20.00;99.90;;;;;;5062130;28;20055;-88
2023/08/15 00:05:30;;;;;;;7.32;3.30;;;19.90;99.90;;;;;;5057186;28;20550;-86
2023/08/15 00:07:59;;;;;;;7.03;2.85;;;19.90;99.90;;;;;;5063904;28;20383;-88
2023/08/15 00:10:24;;;;;;;9.20;2.90;;;19.90;99.90;;;;;;5059932;28;20090;-82
2023/08/15 00:12:50;;;;;;;6.57;3.00;;;19.90;99.90;;;;;;5055921;28;20032;-82
2023/08/15 00:15:17;;;;;;;3.40;2.50;;;19.90;99.90;;;;;;5055998;28;20563;-87
2023/08/15 00:17:44;;;;;;;3.83;2.75;;;20.00;99.90;;;;;;5055352;28;20086;-86
2023/08/15 00:20:11;;;;;;;4.40;2.50;;;19.90;99.90;;;;;;5059284;28;20024;-85
2023/08/15 00:22:36;;;;;;;9.90;3.20;;;19.90;99.90;;;;;;5053170;28;20228;-80
2023/08/15 00:25:02;;;;;;;7.35;3.20;;;19.90;99.90;;;;;;5059967;28;20405;-88
2023/08/15 00:27:28;;;;;;;8.10;2.42;;;20.00;99.90;;;;;;5056955;28;20033;-83
2023/08/15 00:29:53;;;;;;;3.60;2.20;;;20.00;99.90;;;;;;5062325;28;20455;-84
2023/08/15 00:32:21;;;;;;;4.18;2.75;;;20.00;99.90;;;;;;5062560;28;20032;-82
2023/08/15 00:34:46;;;;;;;7.22;2.25;;;20.10;99.90;;;;;;5055591;28;20052;-84
2023/08/15 00:37:12;;;;;;;4.70;2.63;;;20.10;99.90;;;;;;5057141;28;20482;-83
2023/08/15 00:39:38;;;;;;;3.15;2.33;;;20.10;99.90;;;;;;5059863;28;20169;-82
2023/08/15 00:42:03;;;;;;;7.43;3.03;;;20.10;99.90;;;;;;5062475;28;20473;-84
2023/08/15 00:44:29;;;;;;;6.43;2.70;;;20.10;99.90;;;;;;5055716;28;20079;-84
2023/08/15 00:46:57;;;;;;;4.05;2.53;;;20.10;99.90;;;;;;5055646;28;20021;-87
2023/08/15 00:49:23;;;;;;;3.67;2.47;;;20.10;99.90;;;;;;5057280;28;20101;-88
2023/08/15 00:51:49;;;;;;;7.25;2.95;;;20.10;99.90;;;;;;5064662;28;20146;-82
2023/08/15 00:54:15;;;;;;;5.75;2.90;;;20.10;99.90;;;;;;5065938;28;20016;-83
2023/08/15 00:56:41;;;;;;;8.70;3.30;;;20.00;99.90;;;;;;5061971;28;20077;-89
2023/08/15 00:59:07;;;;;;;3.15;2.30;;;20.10;99.90;;;;;;5062131;28;20450;-84
2023/08/15 01:01:36;;;;;;;7.90;2.78;;;20.10;99.90;;;;;;5061505;28;20029;-89
2023/08/15 01:04:02;;;;;;;8.52;4.25;;;20.10;99.90;;;;;;5065966;28;20056;-86
2023/08/15 01:06:27;;;;;;;11.82;3.35;;;20.00;99.90;;;;;;5062373;28;20056;-82
2023/08/15 01:08:55;;;;;;;8.32;3.10;;;20.10;99.90;;;;;;5056289;28;20039;-86
2023/08/15 01:11:22;;;;;;;10.55;2.83;;;20.00;99.90;;;;;;5060956;28;20028;-88
2023/08/15 01:13:59;;;;;;;8.27;3.22;;;20.10;99.90;;;;;;5063534;28;20038;-86
2023/08/15 01:16:31;;;;;;;4.60;3.28;;;20.00;99.90;;;;;;5063556;28;20025;-86
2023/08/15 01:19:29;;;;;;;3.97;2.80;;;20.10;99.90;;;;;;5064512;28;20037;-85
2023/08/15 01:21:58;;;;;;;4.22;2.83;;;20.00;99.90;;;;;;5051839;28;20036;-85
2023/08/15 01:24:25;;;;;;;4.82;2.50;;;20.10;99.90;;;;;;5062727;28;20039;-87
2023/08/15 01:26:50;;;;;;;5.68;2.92;;;20.00;99.90;;;;;;5061685;28;20092;-86
2023/08/15 01:29:16;;;;;;;6.43;2.95;;;20.00;99.90;;;;;;5066754;28;20447;-87
2023/08/15 01:31:57;;;;;;;8.82;3.20;;;20.00;99.90;;;;;;5060606;28;20078;-85
2023/08/15 01:34:31;;;;;;;3.28;2.83;;;20.00;99.90;;;;;;5059838;28;20509;-87
2023/08/15 01:37:03;;;;;;;8.20;2.80;;;20.00;99.90;;;;;;5062007;28;20036;-86
2023/08/15 01:39:30;;;;;;;6.85;2.60;;;20.00;99.90;;;;;;5061845;28;20029;-86
2023/08/15 01:41:59;;;;;;;6.43;3.03;;;19.90;99.90;;;;;;5061398;28;20031;-85
2023/08/15 01:44:27;;;;;;;8.75;3.65;;;19.90;99.90;;;;;;5062649;28;20066;-87
2023/08/15 01:46:53;;;;;;;8.07;3.42;;;19.90;99.90;;;;;;5064271;28;20640;-85
2023/08/15 01:49:18;;;;;;;4.35;2.70;;;19.90;99.90;;;;;;5064462;28;20079;-86
2023/08/15 01:51:44;;;;;;;5.13;2.78;;;19.90;99.90;;;;;;5065201;28;20021;-85
2023/08/15 01:54:09;;;;;;;6.35;3.42;;;19.80;99.90;;;;;;5063336;28;20027;-87
2023/08/15 01:56:35;;;;;;;3.97;2.95;;;19.80;99.90;;;;;;5065476;28;20032;-87
2023/08/15 01:59:00;;;;;;;4.13;2.90;;;19.90;99.90;;;;;;5060693;28;20524;-86
2023/08/15 02:01:26;;;;;;;2.85;2.58;;;19.80;99.90;;;;;;5063603;28;20056;-91
2023/08/15 02:03:52;;;;;;;7.93;3.15;;;19.80;99.90;;;;;;5061309;28;20028;-85
2023/08/15 02:06:17;;;;;;;3.97;2.90;;;19.80;99.90;;;;;;5065057;28;20107;-85
2023/08/15 02:08:43;;;;;;;4.00;3.30;;;19.80;99.90;;;;;;5064153;28;20470;-84
2023/08/15 02:11:08;;;;;;;4.35;2.90;;;19.80;99.90;;;;;;5065705;28;20052;-84
2023/08/15 02:13:34;;;;;;;6.20;2.75;;;19.80;99.90;;;;;;5060059;28;20031;-88
2023/08/15 02:16:00;;;;;;;3.78;2.78;;;19.90;99.90;;;;;;5066586;28;20036;-84
2023/08/15 02:18:28;;;;;;;4.88;3.40;;;19.90;99.90;;;;;;5064945;28;20029;-85
2023/08/15 02:20:54;;;;;;;4.60;3.08;;;19.90;99.90;;;;;;5061587;28;20417;-86
2023/08/15 02:23:22;;;;;;;5.53;3.17;;;19.80;99.90;;;;;;5058587;28;20025;-91
2023/08/15 02:25:47;;;;;;;4.60;2.95;;;19.80;99.90;;;;;;5062815;28;20039;-86
2023/08/15 02:28:13;;;;;;;3.72;2.75;;;19.70;99.90;;;;;;5060865;28;20028;-85
2023/08/15 02:30:39;;;;;;;3.80;2.90;;;19.70;99.90;;;;;;5063989;28;20485;-86
2023/08/15 02:33:07;;;;;;;6.28;2.60;;;19.70;99.90;;;;;;5066091;28;20035;-85
2023/08/15 02:35:37;;;;;;;3.03;2.42;;;19.60;99.90;;;;;;5058401;28;20027;-86
2023/08/15 02:38:03;;;;;;;5.10;3.22;;;19.60;99.90;;;;;;5058296;28;20123;-88
2023/08/15 02:40:28;;;;;;;6.20;3.10;;;19.50;99.90;;;;;;5061191;28;20083;-86
2023/08/15 02:42:54;;;;;;;10.07;3.60;;;19.50;99.90;;;;;;5063967;28;20043;-88
2023/08/15 02:45:20;;;;;;;5.47;3.00;;;19.60;99.90;;;;;;5062267;28;20035;-87
2023/08/15 02:47:46;;;;;;;7.60;3.30;;;19.60;99.90;;;;;;5063367;28;20107;-85
2023/08/15 02:50:12;;;;;;;13.27;3.70;;;19.50;99.90;;;;;;5063952;28;20040;-86
2023/08/15 02:52:38;;;;;;;6.63;3.35;;;19.60;99.90;;;;;;5062011;28;20029;-82
2023/08/15 02:55:04;;;;;;;4.53;3.10;;;19.70;99.90;;;;;;5059009;28;20104;-90
2023/08/15 02:57:30;;;;;;;6.68;3.70;;;19.70;99.90;;;;;;5060100;28;20078;-88
2023/08/15 02:59:56;;;;;;;3.75;3.00;;;19.80;99.90;;;;;;5065092;28;20032;-84
2023/08/15 03:02:22;;;;;;;4.50;3.17;;;19.80;99.90;;;;;;5058399;28;20071;-86
2023/08/15 03:04:48;;;;;;;4.20;3.30;;;19.80;99.90;;;;;;5061370;28;20033;-92
2023/08/15 03:07:14;;;;;;;8.85;2.92;;;19.80;99.90;;;;;;5060333;28;20036;-83
2023/08/15 03:09:39;;;;;;;9.60;3.40;;;19.80;99.90;;;;;;5057375;28;20045;-86
2023/08/15 03:12:05;;;;;;;9.98;3.40;;;19.80;99.90;;;;;;5063920;28;20036;-84
2023/08/15 03:14:31;;;;;;;8.57;3.22;;;19.90;99.90;;;;;;5062028;28;20025;-89
2023/08/15 03:16:56;;;;;;;4.88;3.13;;;20.00;99.90;;;;;;5061293;28;20024;-82
2023/08/15 03:19:22;;;;;;;10.30;3.70;;;20.00;99.90;;;;;;5059650;28;20020;-85
2023/08/15 03:21:48;;;;;;;7.03;3.17;;;20.00;99.90;;;;;;5061043;28;20115;-86
2023/08/15 03:24:15;;;;;;;8.18;3.22;;;20.00;99.90;;;;;;5061368;28;20081;-87
2023/08/15 03:26:42;;;;;;;3.40;3.00;;;20.00;99.90;;;;;;5053772;28;20042;-87
2023/08/15 03:29:07;;;;;;;5.15;3.20;;;20.00;99.90;;;;;;5060544;28;20044;-87
2023/08/15 03:31:33;;;;;;;9.95;3.88;;;20.00;99.90;;;;;;5063713;28;20024;-89
2023/08/15 03:33:59;;;;;;;10.02;3.33;;;20.00;99.90;;;;;;5043245;28;20035;-86
2023/08/15 03:36:30;;;;;;;6.22;3.38;;;19.90;99.90;;;;;;5053372;28;20821;-90
2023/08/15 03:38:55;;;;;;;9.00;3.88;;;19.90;99.90;;;;;;5056849;28;20135;-86
2023/08/15 03:41:21;;;;;;;11.82;3.47;;;19.90;99.90;;;;;;5062348;28;20178;-90
2023/08/15 03:43:47;;;;;;;10.05;3.63;;;19.80;99.90;;;;;;5062695;28;20393;-85
2023/08/15 03:46:13;;;;;;;11.98;3.53;;;19.90;99.90;;;;;;5053471;28;20039;-87
2023/08/15 03:48:38;;;;;;;10.85;3.28;;;20.00;99.90;;;;;;5048210;28;20020;-85
2023/08/15 03:51:04;;;;;;;7.63;3.45;;;20.00;99.90;;;;;;5046552;28;20067;-87
2023/08/15 03:53:33;;;;;;;7.05;3.95;;;20.00;99.90;;;;;;5045423;28;20389;-88
2023/08/15 03:55:58;;;;;;;11.45;3.63;;;20.00;99.90;;;;;;5042914;28;20628;-86
2023/08/15 03:58:24;;;;;;;7.55;4.07;;;20.00;99.90;;;;;;5021671;28;20383;-89
2023/08/15 04:00:50;;;;;;;8.85;3.40;;;20.00;99.90;;;;;;5043015;28;20033;-85
2023/08/15 04:03:19;;;;;;;4.18;3.20;;;20.00;99.90;;;;;;5038805;28;20028;-89
2023/08/15 04:05:47;;;;;;;9.95;3.35;;;20.00;99.90;;;;;;5060804;28;20045;-91
2023/08/15 04:08:13;;;;;;;7.50;3.83;;;20.00;99.90;;;;;;5051880;28;20111;-87
2023/08/15 04:10:39;;;;;;;8.20;3.55;;;20.00;99.90;;;;;;5052514;28;20477;-85
2023/08/15 04:13:08;;;;;;;11.95;3.75;;;20.00;99.90;;;;;;5057626;28;20269;-85
2023/08/15 04:15:35;;;;;;;5.88;3.42;;;20.00;99.90;;;;;;5051144;28;20060;-87
2023/08/15 04:18:08;;;;;;;5.70;4.07;;;20.00;99.90;;;;;;5041069;28;20068;-83
2023/08/15 04:20:42;;;;;;;4.97;3.70;;;20.10;99.90;;;;;;5053836;28;20067;-87
2023/08/15 04:23:08;;;;;;;8.73;3.70;;;20.10;99.90;;;;;;5059702;28;20124;-86
2023/08/15 04:25:35;;;;;;;7.85;3.17;;;20.10;99.90;;;;;;5057008;28;20024;-85
2023/08/15 04:28:01;;;;;;;9.80;3.53;;;20.10;99.90;;;;;;5062613;28;20032;-85
2023/08/15 04:30:29;;;;;;;8.43;3.67;;;20.20;99.90;;;;;;5055200;28;20048;-85
2023/08/15 04:32:55;;;;;;;9.40;3.45;;;20.20;99.90;;;;;;5056584;28;20097;-83
2023/08/15 04:35:22;;;;;;;8.25;3.50;;;20.30;99.90;;;;;;5058593;28;20028;-86
2023/08/15 04:37:47;;;;;;;6.93;3.55;;;20.30;99.90;;;;;;5058045;28;20036;-87
2023/08/15 04:40:13;;;;;;;9.93;4.18;;;20.30;99.90;;;;;;5061614;28;20055;-86
2023/08/15 04:42:40;;;;;;;12.00;4.03;;;20.30;99.90;;;;;;5058622;28;20032;-85
2023/08/15 04:45:06;;;;;;;7.70;4.07;;;20.50;99.90;;;;;;5062066;28;20059;-83
2023/08/15 04:47:35;;;;;;;12.93;3.60;;;20.50;99.90;;;;;;5059609;28;20466;-89
2023/08/15 04:50:01;;;;;;;8.75;3.70;;;20.50;99.90;;;;;;5053697;28;20051;-83
2023/08/15 04:52:30;;;;;;;8.32;3.78;;;20.50;99.90;;;;;;5054355;28;20440;-82
2023/08/15 04:54:55;;;;;;;13.57;4.10;;;20.50;99.90;;;;;;5062077;28;20064;-83
2023/08/15 04:57:24;;;;;;;8.13;4.07;;;20.50;99.90;;;;;;5061925;28;20024;-88
2023/08/15 04:59:49;;;;;;;7.15;3.95;;;20.50;99.90;;;;;;5055090;28;20466;-84
2023/08/15 05:02:15;;;;;;;13.05;3.95;;;20.60;99.90;;;;;;5063245;28;20078;-83
2023/08/15 05:04:41;;;;;;;4.82;4.03;;;20.50;99.90;;;;;;5063755;28;20029;-83
2023/08/15 05:07:06;;;;;;;7.80;4.30;;;20.60;99.90;;;;;;5064016;28;20028;-84
2023/08/15 05:09:32;;;;;;;9.63;3.85;;;20.60;99.90;;;;;;5054579;28;20033;-86
2023/08/15 05:11:58;;;;;;;5.90;3.90;;;20.60;99.90;;;;;;5059240;28;20115;-83
2023/08/15 05:14:23;;;;;;;5.30;3.60;;;20.70;99.90;;;;;;5063956;28;20537;-85
2023/08/15 05:16:50;;;;;;;11.68;4.25;;;20.70;99.90;;;;;;5065093;28;20027;-83
2023/08/15 05:19:15;;;;;;;10.75;4.00;;;20.70;99.90;;;;;;5063040;28;20082;-86
2023/08/15 05:21:41;;;;;;;5.70;4.05;;;20.80;99.90;;;;;;5062959;28;20029;-83
2023/08/15 05:24:07;;;;;;;5.03;3.15;;;20.90;99.90;;;;;;5063061;28;20033;-83
2023/08/15 05:26:33;;;;;;;8.55;3.30;;;20.80;99.90;;;;;;5052921;28;20028;-85
2023/08/15 05:28:59;;;;;;;8.13;4.00;;;20.90;99.90;;;;;;5052971;28;20041;-82
2023/08/15 05:31:24;;;;;;;4.13;3.47;;;20.90;99.90;;;;;;5052115;28;20028;-84
2023/08/15 05:33:50;;;;;;;5.55;3.80;;;21.00;99.90;;;;;;5059034;28;20032;-85
2023/08/15 05:36:16;;;;;;;6.53;3.58;;;21.00;99.90;;;;;;5062361;28;20031;-82
2023/08/15 05:38:41;;;;;;;7.85;4.28;;;21.00;99.90;;;;;;5057666;28;20025;-87
2023/08/15 05:41:07;;;;;;;10.98;4.07;;;21.00;99.90;;;;;;5058175;28;20048;-83
2023/08/15 05:43:33;;;;;;;13.13;3.90;;;21.00;99.90;;;;;;5062403;28;20115;-86
2023/08/15 05:45:58;;;;;;;6.53;3.80;;;21.10;99.90;;;;;;5061759;28;20025;-83
2023/08/15 05:48:29;;;;;;;6.60;3.97;;;21.20;99.90;;;;;;5064344;28;20029;-85
2023/08/15 05:50:55;;;;;;;7.28;3.78;;;21.20;99.90;;;;;;5059859;28;20047;-83
2023/08/15 05:53:20;;;;;;;11.60;4.28;;;21.20;99.90;;;;;;5061258;28;20025;-83
2023/08/15 05:55:46;;;;;;;10.63;4.05;;;21.30;99.90;;;;;;5057286;28;20025;-83
2023/08/15 05:58:14;;;;;;;6.00;3.95;;;21.30;99.90;;;;;;5061347;28;20063;-83
2023/08/15 06:00:41;;;;;;;8.23;4.20;;;21.40;99.90;;;;;;5059437;28;20051;-84
2023/08/15 06:03:06;;;;;;;10.95;4.45;;;21.50;99.90;;;;;;5062961;28;20025;-83
2023/08/15 06:05:32;;;;;;;6.00;4.30;;;21.50;99.90;;;;;;5049468;28;20505;-85
2023/08/15 06:07:58;;;;;;;6.60;4.38;;;21.60;99.90;;;;;;5056413;28;20115;-83
2023/08/15 06:10:24;;;;;;;8.88;4.40;;;21.70;99.90;;;;;;5062538;28;20028;-83
2023/08/15 06:12:50;;;;;;;11.10;4.32;;;21.70;99.90;;;;;;5060981;28;20040;-83
2023/08/15 06:15:17;;;;;;;7.40;4.15;;;21.70;99.90;;;;;;5050376;28;20086;-85
2023/08/15 06:17:42;;;;;;;9.70;3.28;;;21.80;99.90;;;;;;5063304;28;20180;-82
2023/08/15 06:20:10;;;;;;;11.43;4.13;;;21.90;99.90;;;;;;5063090;28;20028;-83
2023/08/15 06:22:35;;;;;;;9.40;4.15;;;22.00;99.90;;;;;;5057817;28;20016;-83
2023/08/15 06:25:02;;;;;;;11.63;4.30;;;22.10;99.90;;;;;;5044651;28;20031;-83
2023/08/15 06:27:27;;;;;;;4.18;3.47;;;22.10;99.90;;;;;;5057986;28;20077;-82
2023/08/15 06:29:53;;;;;;;7.00;4.22;;;22.00;99.90;;;;;;5048983;28;20048;-83
2023/08/15 06:32:30;;;;;;;6.93;3.88;;;21.90;99.90;;;;;;5050667;28;20052;-83
2023/08/15 06:34:56;;;;;;;7.22;4.88;;;21.90;99.90;;;;;;5062567;28;20044;-83
2023/08/15 06:37:22;;;;;;;8.88;4.05;;;21.90;99.90;;;;;;5058953;28;20697;-86
2023/08/15 06:39:47;;;;;;;5.15;3.30;;;21.90;99.90;;;;;;5060889;28;20049;-83
2023/08/15 06:42:13;;;;;;;9.45;3.80;;;21.90;99.90;;;;;;5041601;28;20032;-84
2023/08/15 06:44:42;;;;;;;7.03;4.00;;;21.90;99.90;;;;;;5053265;28;20025;-83
2023/08/15 06:47:07;;;;;;;5.10;3.90;;;22.00;99.90;;;;;;5058779;28;20430;-83
2023/08/15 06:49:33;;;;;;;4.40;3.65;;;22.00;99.90;;;;;;5061677;28;20079;-84
2023/08/15 06:51:58;;;;;;;10.52;3.72;;;22.10;99.90;;;;;;5041504;28;20612;-82
2023/08/15 06:54:24;;;;;;;6.00;4.05;;;22.10;99.90;;;;;;5061426;28;20024;-83
2023/08/15 06:56:50;;;;;;;6.53;3.80;;;22.30;99.90;;;;;;5074863;28;20452;-83
2023/08/15 06:59:15;;;;;;;5.40;3.38;;;22.40;99.90;;;;;;5065464;28;20504;-82
2023/08/15 07:01:41;;;;;;;6.28;3.47;;;22.40;99.90;;;;;;5061347;28;20437;-84
2023/08/15 07:04:06;;;;;;;4.57;3.55;;;22.60;99.90;;;;;;5057783;28;20025;-82
2023/08/15 07:06:32;;;;;;;8.15;3.45;;;22.70;99.90;;;;;;5064809;28;20024;-83
2023/08/15 07:08:59;;;;;;;10.15;3.85;;;22.80;99.90;;;;;;5065504;28;20063;-82
2023/08/15 07:11:24;;;;;;;5.38;3.38;;;22.80;99.90;;;;;;5064055;28;20036;-83
2023/08/15 07:13:51;;;;;;;8.90;3.90;;;22.80;99.90;;;;;;5067095;28;20028;-83
2023/08/15 07:16:17;;;;;;;10.82;3.22;;;22.70;99.90;;;;;;5062187;28;20052;-84
2023/08/15 07:18:42;;;;;;;4.25;3.30;;;22.60;99.90;;;;;;5061258;28;20106;-83
2023/08/15 07:21:08;;;;;;;10.25;4.07;;;22.60;99.90;;;;;;5066733;28;20024;-82
2023/08/15 07:23:35;;;;;;;9.88;4.03;;;22.50;99.90;;;;;;5063862;28;20036;-84
2023/08/15 07:26:00;;;;;;;7.82;4.15;;;22.40;99.90;;;;;;5045516;28;20109;-83
2023/08/15 08:26:26;;;;;;;9.18;5.68;;;21.40;99.90;;;;;;5062412;28;20106;-95
2023/08/15 08:28:52;;;;;;;7.57;5.20;;;21.50;99.90;;;;;;5065373;28;20029;-92
2023/08/15 08:31:18;;;;;;;11.55;5.57;;;21.50;99.90;;;;;;5066835;28;20061;-94
2023/08/15 08:33:44;;;;;;;9.90;5.40;;;21.50;99.90;;;;;;5065537;28;20020;-92
2023/08/15 08:36:10;;;;;;;11.15;5.75;;;21.50;99.90;;;;;;5061350;28;20061;-93
2023/08/15 08:38:36;;;;;;;16.70;6.47;;;21.60;99.90;;;;;;5062060;28;20024;-93
2023/08/15 08:41:02;;;;;;;10.73;5.18;;;21.60;99.90;;;;;;5067961;28;20040;-92
2023/08/15 08:43:29;;;;;;;7.05;5.38;;;21.60;99.90;;;;;;5069507;28;20025;-94
2023/08/15 08:45:59;;;;;;;8.40;5.90;;;21.60;99.90;;;;;;5068027;28;20162;-92
2023/08/15 08:48:25;;;;;;;6.60;5.10;;;21.60;99.90;;;;;;5064541;28;20092;-93
2023/08/15 08:50:53;;;;;;;8.68;5.45;;;21.60;99.90;;;;;;5067270;28;20045;-92
2023/08/15 08:53:19;;;;;;;14.32;6.28;;;21.70;99.90;;;;;;5067576;28;20034;-92
2023/08/15 08:55:48;;;;;;;7.75;5.78;;;21.80;99.90;;;;;;5066772;28;20032;-91
2023/08/15 08:58:14;;;;;;;10.90;5.78;;;21.90;99.90;;;;;;5062352;28;20149;-92
2023/08/15 09:00:40;;;;;;;9.38;4.78;;;21.90;99.90;;;;;;5046718;28;20497;-90
2023/08/15 09:03:07;;;;;;;6.82;4.97;;;22.10;99.90;;;;;;5063331;28;20033;-90
2023/08/15 09:05:33;;;;;;;4.82;4.28;;;22.00;99.90;;;;;;5063693;28;20119;-90
2023/08/15 09:07:59;;;;;;;6.38;4.68;;;22.10;99.90;;;;;;5064105;28;20108;-89
2023/08/15 09:10:24;;;;;;;9.73;4.43;;;22.10;99.90;;;;;;5062048;28;20189;-90
2023/08/15 09:12:50;;;;;;;7.18;4.30;;;22.20;99.90;;;;;;5065452;28;20020;-88
2023/08/15 09:15:15;;;;;;;5.30;4.00;;;22.20;99.90;;;;;;5071048;28;20020;-89
2023/08/15 09:17:42;;;;;;;7.85;4.40;;;22.20;99.90;;;;;;5065344;28;20028;-91
2023/08/15 09:20:10;;;;;;;7.20;4.32;;;22.40;99.90;;;;;;5067387;28;20511;-89
2023/08/15 09:22:38;;;;;;;5.93;4.25;;;22.40;99.90;;;;;;5063794;28;20136;-90
2023/08/15 09:25:04;;;;;;;7.22;3.90;;;22.40;99.90;;;;;;5071872;28;20048;-91
2023/08/15 09:27:30;;;;;;;7.95;4.13;;;22.50;99.90;;;;;;5067713;28;20035;-90
2023/08/15 09:29:55;;;;;;;6.68;4.00;;;22.50;99.90;;;;;;5069712;28;20040;-91
2023/08/15 09:32:22;;;;;;;5.20;3.75;;;22.50;99.90;;;;;;5064808;28;20067;-89
2023/08/15 09:34:47;;;;;;;6.18;3.97;;;22.60;99.90;;;;;;5068165;28;20458;-88
2023/08/15 09:37:13;;;;;;;12.68;4.20;;;22.60;99.90;;;;;;5068661;28;20029;-90
2023/08/15 09:39:39;;;;;;;7.40;3.60;;;22.70;99.90;;;;;;5066416;28;20388;-90
2023/08/15 09:42:05;;;;;;;5.20;3.70;;;22.70;99.90;;;;;;5064181;28;20040;-89
2023/08/15 09:44:33;;;;;;;5.18;3.47;;;22.80;99.90;;;;;;5068883;28;20109;-89
2023/08/15 09:47:00;;;;;;;8.75;3.83;;;22.80;99.90;;;;;;5049490;28;20143;-89
2023/08/15 09:49:27;;;;;;;4.63;3.65;;;22.90;99.90;;;;;;5065100;28;20132;-91
2023/08/15 09:51:53;;;;;;;4.25;3.42;;;22.90;99.90;;;;;;5063870;28;20047;-89
2023/08/15 09:54:20;;;;;;;6.57;3.95;;;23.10;99.90;;;;;;5061126;28;20729;-91
2023/08/15 09:56:46;;;;;;;6.50;3.58;;;23.10;99.90;;;;;;5063083;28;20024;-89
2023/08/15 09:59:12;;;;;;;6.38;3.80;;;23.10;99.90;;;;;;5062237;28;20024;-90
2023/08/15 10:01:41;;;;;;;7.05;4.10;;;23.20;99.90;;;;;;5056008;28;20400;-95
2023/08/15 10:04:09;;;;;;;5.10;2.97;;;23.20;99.90;;;;;;5068422;28;20093;-90
2023/08/15 10:06:35;;;;;;;4.30;3.15;;;23.30;99.90;;;;;;5061336;28;20032;-90
2023/08/15 10:09:03;;;;;;;6.72;3.22;;;23.30;99.90;;;;;;5057932;28;20024;-90
2023/08/15 10:11:31;;;;;;;4.40;3.17;;;23.30;99.90;;;;;;5042257;28;20017;-89
2023/08/15 10:13:57;;;;;;;4.20;3.20;;;23.40;99.90;;;;;;5057674;28;20036;-88
2023/08/15 10:16:23;;;;;;;6.68;3.22;;;23.50;99.90;;;;;;5064409;28;20029;-88
2023/08/15 10:18:57;;;;;;;7.13;3.17;;;23.50;99.90;;;;;;5062266;28;20135;-88
2023/08/15 10:21:29;;;;;;;7.88;3.45;;;23.40;99.90;;;;;;5060946;28;20033;-90
2023/08/15 10:24:02;;;;;;;7.20;3.78;;;23.50;99.90;;;;;;5049965;28;20580;-90
2023/08/15 10:26:28;;;;;;;4.60;3.33;;;23.60;99.90;;;;;;5064761;28;20052;-90
2023/08/15 10:28:56;;;;;;;5.28;3.40;;;23.70;99.90;;;;;;5051363;28;20465;-91
2023/08/15 10:31:35;;;;;;;5.45;2.70;;;23.70;99.90;;;;;;5065472;28;20027;-89
2023/08/15 10:34:10;;;;;;;6.80;2.83;;;23.80;99.90;;;;;;5067478;28;20047;-89
2023/08/15 10:36:39;;;;;;;2.85;2.65;;;23.80;99.90;;;;;;5065085;28;20117;-87
2023/08/15 10:39:09;;;;;;;5.55;3.22;;;23.90;99.90;;;;;;5067117;28;20058;-88
2023/08/15 10:41:36;;;;;;;3.17;2.67;;;24.00;99.90;;;;;;5069366;28;20039;-88
2023/08/15 10:44:05;;;;;;;3.50;2.90;;;24.00;99.90;;;;;;5067004;28;20088;-89
2023/08/15 10:46:33;;;;;;;5.75;3.00;;;24.10;99.90;;;;;;5058198;28;20033;-89
2023/08/15 10:49:10;;;;;;;5.90;2.63;;;24.20;99.90;;;;;;5068960;28;20040;-91
2023/08/15 10:51:40;;;;;;;3.28;2.25;;;24.20;99.90;;;;;;5060291;28;20171;-90
2023/08/15 10:54:17;;;;;;;3.13;2.20;;;24.30;99.90;;;;;;5065035;28;20025;-92
2023/08/15 10:56:43;;;;;;;7.53;2.33;;;24.30;99.90;;;;;;5041752;28;20036;-89
2023/08/15 10:59:14;;;;;;;2.97;2.35;;;24.40;99.90;;;;;;5025408;28;20048;-89
2023/08/15 11:01:42;;;;;;;1.92;1.58;;;24.60;99.90;;;;;;5017979;28;20021;-93
2023/08/15 11:04:18;;;;;;;1.50;1.40;;;24.70;99.90;;;;;;5041707;28;20473;-94
2023/08/15 11:06:46;;;;;;;3.05;1.50;;;24.90;99.90;;;;;;5040678;28;20421;-90
2023/08/15 11:09:14;;;;;;;1.55;1.45;;;25.10;99.90;;;;;;5036734;28;20083;-88
2023/08/15 11:11:40;;;;;;;3.45;1.50;;;25.30;99.90;;;;;;5042348;28;20134;-92
2023/08/15 11:14:18;;;;;;;6.68;1.88;;;25.30;99.90;;;;;;5038902;28;20112;-88
2023/08/15 11:16:48;;;;;;;5.10;1.60;;;25.40;99.90;;;;;;5046000;28;20048;-88
2023/08/15 11:19:18;;;;;;;2.15;1.70;;;25.40;99.90;;;;;;5036423;28;20178;-87
2023/08/15 11:21:44;;;;;;;3.97;1.60;;;25.40;99.90;;;;;;5045192;28;20087;-87
2023/08/15 11:24:13;;;;;;;2.65;1.17;;;25.50;99.90;;;;;;5041576;28;20478;-93
2023/08/15 11:26:40;;;;;;;5.65;1.88;;;25.50;99.90;;;;;;5039669;28;20080;-90
2023/08/15 11:29:08;;;;;;;4.22;1.63;;;25.60;99.90;;;;;;5035155;28;20382;-86
2023/08/15 11:31:33;;;;;;;4.72;1.60;;;25.80;99.90;;;;;;5037931;28;20034;-87
2023/08/15 11:34:03;;;;;;;2.95;2.05;;;25.70;99.90;;;;;;5040562;28;20044;-92
2023/08/15 11:36:28;;;;;;;2.97;1.70;;;25.70;99.90;;;;;;5033593;28;20021;-90
2023/08/15 11:38:55;;;;;;;2.00;1.55;;;25.70;99.90;;;;;;5036158;28;20079;-91
2023/08/15 11:41:21;;;;;;;2.13;1.58;;;25.60;99.90;;;;;;5035256;28;20029;-90
2023/08/15 11:43:48;;;;;;;3.17;1.98;;;25.70;99.90;;;;;;5045432;28;20033;-86
2023/08/15 11:46:13;;;;;;;5.72;1.73;;;25.80;99.90;;;;;;5042503;28;20021;-87
2023/08/15 11:48:45;;;;;;;1.95;1.60;;;25.80;99.90;;;;;;5043039;28;20386;-88
2023/08/15 11:51:10;;;;;;;5.35;1.65;;;25.80;99.90;;;;;;5039618;28;20500;-88
2023/08/15 11:53:36;;;;;;;3.38;1.33;;;25.90;99.90;;;;;;5039985;28;20147;-88
2023/08/15 11:56:04;;;;;;;5.20;1.92;;;25.90;99.90;;;;;;5042412;28;20037;-96
2023/08/15 11:58:31;;;;;;;2.70;1.55;;;26.10;99.90;;;;;;5021685;28;20120;-87
2023/08/15 12:01:02;;;;;;;6.28;1.40;;;26.10;99.90;;;;;;5037261;28;20021;-88
2023/08/15 12:03:29;;;;;;;4.47;1.40;;;26.40;99.90;;;;;;5038530;28;20025;-86
2023/08/15 12:05:57;;;;;;;1.88;1.30;;;26.50;99.90;;;;;;5042953;28;20029;-88
2023/08/15 12:08:29;;;;;;;1.85;1.45;;;26.80;99.90;;;;;;5034084;28;20128;-85
2023/08/15 12:10:57;;;;;;;4.20;1.98;;;26.90;99.90;;;;;;5045202;28;20044;-90
2023/08/15 12:13:30;;;;;;;3.42;1.20;;;26.90;99.90;;;;;;5041981;28;20102;-91
2023/08/15 12:15:55;;;;;;;1.15;1.02;;;26.90;99.90;;;;;;5043399;28;20029;-86
2023/08/15 12:18:22;;;;;;;2.05;1.00;;;26.90;99.90;;;;;;5019983;28;20036;-87
2023/08/15 12:20:48;;;;;;;2.22;1.40;;;26.90;99.90;;;;;;5032405;28;20029;-85
2023/08/15 12:23:14;;;;;;;1.95;1.30;;;27.00;99.90;;;;;;5039026;28;20116;-85
2023/08/15 12:25:40;;;;;;;1.60;1.50;;;27.20;99.90;;;;;;5032377;28;20041;-89
2023/08/15 12:28:07;;;;;;;1.70;1.20;;;27.30;99.90;;;;;;5039050;28;20039;-88
2023/08/15 12:30:33;;;;;;;1.10;1.00;;;27.20;99.90;;;;;;5038907;28;20478;-85
2023/08/15 12:32:58;;;;;;;1.58;1.00;;;27.30;99.90;;;;;;5041150;28;20032;-86
2023/08/15 12:35:24;;;;;;;1.65;1.30;;;27.20;99.90;;;;;;5039815;28;20025;-89
2023/08/15 12:37:50;;;;;;;2.38;1.13;;;27.20;99.90;;;;;;5044614;28;20024;-86
2023/08/15 12:40:15;;;;;;;1.65;1.00;;;27.20;99.90;;;;;;5044683;28;20548;-85
2023/08/15 12:42:41;;;;;;;1.67;1.15;;;27.20;99.90;;;;;;5042324;28;20033;-88
2023/08/15 12:45:07;;;;;;;2.47;1.35;;;27.20;99.90;;;;;;5036681;28;20060;-88
2023/08/15 12:47:33;;;;;;;1.20;1.10;;;27.30;99.90;;;;;;5044753;28;20029;-89
2023/08/15 12:50:01;;;;;;;1.95;1.20;;;27.40;99.90;;;;;;5041377;28;20033;-85
2023/08/15 12:52:27;;;;;;;1.70;1.23;;;27.50;99.90;;;;;;5039915;28;20025;-91
2023/08/15 12:54:53;;;;;;;4.75;1.08;;;27.60;99.90;;;;;;5044676;28;20126;-87
2023/08/15 12:57:18;;;;;;;1.02;0.93;;;27.60;99.90;;;;;;5039323;28;20412;-85
2023/08/15 12:59:44;;;;;;;1.20;1.10;;;27.70;99.90;;;;;;5021144;28;20029;-85
2023/08/15 13:02:10;;;;;;;1.15;0.93;;;27.70;99.90;;;;;;5043059;28;20561;-89
2023/08/15 13:04:35;;;;;;;1.40;1.17;;;27.70;99.90;;;;;;5043033;28;20033;-85
2023/08/15 13:07:03;;;;;;;2.35;0.90;;;27.90;99.90;;;;;;5042014;28;20081;-87
2023/08/15 13:09:29;;;;;;;2.08;1.35;;;28.00;99.90;;;;;;5043336;28;20293;-86
2023/08/15 13:11:54;;;;;;;1.40;1.00;;;28.00;99.90;;;;;;5043870;28;20017;-88
2023/08/15 13:14:20;;;;;;;1.42;0.88;;;27.90;99.90;;;;;;5047374;28;20394;-86
2023/08/15 13:16:46;;;;;;;1.30;0.82;;;28.00;99.90;;;;;;5047161;28;20017;-88
2023/08/15 13:19:12;;;;;;;3.05;1.20;;;27.90;99.90;;;;;;5044025;28;20036;-89
2023/08/15 13:21:40;;;;;;;3.42;1.10;;;28.00;99.90;;;;;;5038887;28;20032;-96
2023/08/15 13:24:11;;;;;;;2.58;1.00;;;27.90;99.90;;;;;;5041653;28;20049;-85
2023/08/15 13:26:40;;;;;;;3.25;1.85;;;27.90;99.90;;;;;;5037388;28;20044;-94
2023/08/15 13:29:06;;;;;;;5.57;2.05;;;28.00;99.90;;;;;;5038668;28;20470;-85
2023/08/15 13:31:31;;;;;;;5.47;2.08;;;28.10;99.90;;;;;;5040906;28;20024;-83
2023/08/15 13:33:57;;;;;;;1.92;1.73;;;28.00;99.90;;;;;;5042535;28;20067;-85
2023/08/15 13:36:22;;;;;;;4.78;2.17;;;27.90;99.90;;;;;;5046490;28;20035;-83
2023/08/15 13:38:48;;;;;;;2.15;2.05;;;27.80;99.90;;;;;;5042963;28;20124;-83
2023/08/15 13:41:13;;;;;;;5.22;2.58;;;27.80;99.90;;;;;;5044484;28;20029;-84